sensor_id;sensor_type;location;lat;lon;timestamp;P1;durP1;ratioP1;P2;durP2;ratioP2
21206;SDS011;10761;48.532;8.026;2023-07-20T00:00:27;4.78;;;2.70;;
21206;SDS011;10761;48.532;8.026;2023-07-20T00:02:52;3.75;;;2.40;;
21206;SDS011;10761;48.532;8.026;2023-07-20T00:05:34;7.63;;;2.83;;
21206;SDS011;10761;48.532;8.026;2023-07-20T00:08:00;5.65;;;2.42;;
21206;SDS011;10761;48.532;8.026;2023-07-20T00:10:25;6.90;;;2.53;;
21206;SDS011;10761;48.532;8.026;2023-07-20T00:12:51;7.85;;;2.40;;
21206;SDS011;10761;48.532;8.026;2023-07-20T00:15:16;7.28;;;2.70;;
21206;SDS011;10761;48.532;8.026;2023-07-20T00:17:42;7.20;;;2.67;;
21206;SDS011;10761;48.532;8.026;2023-07-20T00:20:09;3.13;;;2.40;;
21206;SDS011;10761;48.532;8.026;2023-07-20T00:22:36;7.80;;;3.00;;
21206;SDS011;10761;48.532;8.026;2023-07-20T00:25:02;6.20;;;2.60;;
21206;SDS011;10761;48.532;8.026;2023-07-20T00:27:28;4.97;;;2.47;;
21206;SDS011;10761;48.532;8.026;2023-07-20T00:29:53;4.38;;;2.60;;
21206;SDS011;10761;48.532;8.026;2023-07-20T00:32:19;4.50;;;2.70;;
21206;SDS011;10761;48.532;8.026;2023-07-20T00:34:44;4.25;;;2.63;;
21206;SDS011;10761;48.532;8.026;2023-07-20T00:37:10;6.43;;;3.08;;
21206;SDS011;10761;48.532;8.026;2023-07-20T00:39:35;5.82;;;2.47;;
21206;SDS011;10761;48.532;8.026;2023-07-20T00:42:01;6.25;;;2.55;;
21206;SDS011;10761;48.532;8.026;2023-07-20T00:44:27;5.15;;;2.50;;
21206;SDS011;10761;48.532;8.026;2023-07-20T00:46:52;4.40;;;2.55;;
21206;SDS011;10761;48.532;8.026;2023-07-20T00:49:18;4.13;;;2.75;;
21206;SDS011;10761;48.532;8.026;2023-07-20T00:51:46;7.93;;;2.30;;
21206;SDS011;10761;48.532;8.026;2023-07-20T00:54:12;6.10;;;2.72;;
21206;SDS011;10761;48.532;8.026;2023-07-20T00:56:39;3.80;;;2.65;;
21206;SDS011;10761;48.532;8.026;2023-07-20T00:59:04;9.50;;;2.70;;
21206;SDS011;10761;48.532;8.026;2023-07-20T01:01:30;4.35;;;2.92;;
21206;SDS011;10761;48.532;8.026;2023-07-20T01:03:56;7.82;;;2.67;;
21206;SDS011;10761;48.532;8.026;2023-07-20T01:11:23;7.35;;;2.83;;
21206;SDS011;10761;48.532;8.026;2023-07-20T01:13:52;4.13;;;2.47;;
21206;SDS011;10761;48.532;8.026;2023-07-20T01:16:17;5.43;;;2.55;;
21206;SDS011;10761;48.532;8.026;2023-07-20T01:18:43;5.57;;;3.13;;
21206;SDS011;10761;48.532;8.026;2023-07-20T01:21:09;4.60;;;2.50;;
21206;SDS011;10761;48.532;8.026;2023-07-20T01:24:04;5.75;;;2.33;;
21206;SDS011;10761;48.532;8.026;2023-07-20T01:32:24;6.00;;;2.88;;
21206;SDS011;10761;48.532;8.026;2023-07-20T01:34:51;8.05;;;2.65;;
21206;SDS011;10761;48.532;8.026;2023-07-20T01:37:19;5.07;;;2.58;;
21206;SDS011;10761;48.532;8.026;2023-07-20T01:39:50;3.83;;;2.28;;
21206;SDS011;10761;48.532;8.026;2023-07-20T01:42:16;4.78;;;2.47;;
21206;SDS011;10761;48.532;8.026;2023-07-20T01:44:42;7.35;;;2.60;;
21206;SDS011;10761;48.532;8.026;2023-07-20T01:47:07;4.95;;;2.40;;
21206;SDS011;10761;48.532;8.026;2023-07-20T01:49:33;7.55;;;2.65;;
21206;SDS011;10761;48.532;8.026;2023-07-20T01:51:59;8.20;;;3.08;;
21206;SDS011;10761;48.532;8.026;2023-07-20T01:54:24;9.65;;;2.60;;
21206;SDS011;10761;48.532;8.026;2023-07-20T01:56:50;4.18;;;2.38;;
21206;SDS011;10761;48.532;8.026;2023-07-20T01:59:16;3.83;;;2.70;;
21206;SDS011;10761;48.532;8.026;2023-07-20T02:01:41;4.80;;;2.50;;
21206;SDS011;10761;48.532;8.026;2023-07-20T02:04:07;6.93;;;2.65;;
21206;SDS011;10761;48.532;8.026;2023-07-20T02:06:32;4.50;;;2.83;;
21206;SDS011;10761;48.532;8.026;2023-07-20T02:08:58;3.85;;;2.47;;
21206;SDS011;10761;48.532;8.026;2023-07-20T02:11:24;8.10;;;2.63;;
21206;SDS011;10761;48.532;8.026;2023-07-20T02:13:49;2.67;;;2.30;;
21206;SDS011;10761;48.532;8.026;2023-07-20T02:16:15;5.82;;;2.67;;
21206;SDS011;10761;48.532;8.026;2023-07-20T02:18:40;4.00;;;2.67;;
21206;SDS011;10761;48.532;8.026;2023-07-20T02:21:06;4.65;;;2.60;;
21206;SDS011;10761;48.532;8.026;2023-07-20T02:23:31;8.05;;;2.53;;
21206;SDS011;10761;48.532;8.026;2023-07-20T02:25:57;3.97;;;2.22;;
21206;SDS011;10761;48.532;8.026;2023-07-20T02:28:23;3.17;;;2.35;;
21206;SDS011;10761;48.532;8.026;2023-07-20T02:30:48;2.92;;;2.42;;
21206;SDS011;10761;48.532;8.026;2023-07-20T02:33:14;10.30;;;2.55;;
21206;SDS011;10761;48.532;8.026;2023-07-20T02:35:40;7.10;;;2.90;;
21206;SDS011;10761;48.532;8.026;2023-07-20T02:38:06;4.22;;;2.60;;
21206;SDS011;10761;48.532;8.026;2023-07-20T02:40:32;4.57;;;3.00;;
21206;SDS011;10761;48.532;8.026;2023-07-20T02:42:57;7.63;;;2.80;;
21206;SDS011;10761;48.532;8.026;2023-07-20T02:45:23;6.10;;;2.92;;
21206;SDS011;10761;48.532;8.026;2023-07-20T02:47:48;7.35;;;2.50;;
21206;SDS011;10761;48.532;8.026;2023-07-20T02:50:14;4.13;;;2.42;;
21206;SDS011;10761;48.532;8.026;2023-07-20T02:52:40;4.28;;;2.90;;
21206;SDS011;10761;48.532;8.026;2023-07-20T02:55:05;6.07;;;2.67;;
21206;SDS011;10761;48.532;8.026;2023-07-20T02:57:31;9.18;;;2.95;;
21206;SDS011;10761;48.532;8.026;2023-07-20T02:59:57;4.88;;;2.50;;
21206;SDS011;10761;48.532;8.026;2023-07-20T03:02:22;7.05;;;2.60;;
21206;SDS011;10761;48.532;8.026;2023-07-20T03:04:48;9.15;;;3.00;;
21206;SDS011;10761;48.532;8.026;2023-07-20T03:07:14;4.70;;;2.70;;
21206;SDS011;10761;48.532;8.026;2023-07-20T03:09:39;7.53;;;2.35;;
21206;SDS011;10761;48.532;8.026;2023-07-20T03:12:06;3.97;;;2.53;;
21206;SDS011;10761;48.532;8.026;2023-07-20T03:14:32;3.75;;;2.33;;
21206;SDS011;10761;48.532;8.026;2023-07-20T03:16:57;2.67;;;2.35;;
21206;SDS011;10761;48.532;8.026;2023-07-20T03:19:23;5.03;;;2.97;;
21206;SDS011;10761;48.532;8.026;2023-07-20T03:21:49;5.40;;;2.78;;
21206;SDS011;10761;48.532;8.026;2023-07-20T03:24:16;3.90;;;2.53;;
21206;SDS011;10761;48.532;8.026;2023-07-20T03:26:41;6.82;;;2.92;;
21206;SDS011;10761;48.532;8.026;2023-07-20T03:29:07;2.50;;;2.28;;
21206;SDS011;10761;48.532;8.026;2023-07-20T03:31:33;5.22;;;2.40;;
21206;SDS011;10761;48.532;8.026;2023-07-20T03:33:59;4.68;;;2.65;;
21206;SDS011;10761;48.532;8.026;2023-07-20T03:36:24;5.60;;;2.17;;
21206;SDS011;10761;48.532;8.026;2023-07-20T03:38:50;9.80;;;2.50;;
21206;SDS011;10761;48.532;8.026;2023-07-20T03:41:16;3.10;;;2.25;;
21206;SDS011;10761;48.532;8.026;2023-07-20T03:43:41;5.70;;;2.58;;
21206;SDS011;10761;48.532;8.026;2023-07-20T03:46:07;6.95;;;2.22;;
21206;SDS011;10761;48.532;8.026;2023-07-20T03:48:33;3.65;;;2.30;;
21206;SDS011;10761;48.532;8.026;2023-07-20T03:50:58;4.65;;;2.35;;
21206;SDS011;10761;48.532;8.026;2023-07-20T03:53:25;8.05;;;2.35;;
21206;SDS011;10761;48.532;8.026;2023-07-20T03:55:51;7.05;;;2.45;;
21206;SDS011;10761;48.532;8.026;2023-07-20T03:58:18;3.70;;;2.05;;
21206;SDS011;10761;48.532;8.026;2023-07-20T04:00:48;4.00;;;2.35;;
21206;SDS011;10761;48.532;8.026;2023-07-20T04:03:16;4.90;;;2.35;;
21206;SDS011;10761;48.532;8.026;2023-07-20T04:05:42;7.28;;;2.10;;
21206;SDS011;10761;48.532;8.026;2023-07-20T04:08:09;5.63;;;2.30;;
21206;SDS011;10761;48.532;8.026;2023-07-20T04:10:36;4.78;;;2.28;;
21206;SDS011;10761;48.532;8.026;2023-07-20T04:13:01;6.45;;;2.22;;
21206;SDS011;10761;48.532;8.026;2023-07-20T04:15:27;4.45;;;2.00;;
21206;SDS011;10761;48.532;8.026;2023-07-20T04:17:53;4.93;;;2.05;;
21206;SDS011;10761;48.532;8.026;2023-07-20T04:20:18;2.83;;;2.00;;
21206;SDS011;10761;48.532;8.026;2023-07-20T04:22:44;6.10;;;2.35;;
21206;SDS011;10761;48.532;8.026;2023-07-20T04:25:09;5.55;;;2.45;;
21206;SDS011;10761;48.532;8.026;2023-07-20T04:27:35;3.33;;;2.22;;
21206;SDS011;10761;48.532;8.026;2023-07-20T04:30:01;5.43;;;2.60;;
21206;SDS011;10761;48.532;8.026;2023-07-20T04:32:28;3.05;;;2.22;;
21206;SDS011;10761;48.532;8.026;2023-07-20T04:34:54;4.47;;;2.25;;
21206;SDS011;10761;48.532;8.026;2023-07-20T04:37:19;3.88;;;2.10;;
21206;SDS011;10761;48.532;8.026;2023-07-20T04:39:45;4.22;;;1.98;;
21206;SDS011;10761;48.532;8.026;2023-07-20T04:42:11;6.13;;;2.67;;
21206;SDS011;10761;48.532;8.026;2023-07-20T04:44:36;6.97;;;2.30;;
21206;SDS011;10761;48.532;8.026;2023-07-20T04:47:02;4.28;;;2.30;;
21206;SDS011;10761;48.532;8.026;2023-07-20T04:49:28;3.80;;;2.15;;
21206;SDS011;10761;48.532;8.026;2023-07-20T04:51:53;3.85;;;2.47;;
21206;SDS011;10761;48.532;8.026;2023-07-20T04:54:19;5.15;;;2.63;;
21206;SDS011;10761;48.532;8.026;2023-07-20T04:56:45;5.03;;;2.70;;
21206;SDS011;10761;48.532;8.026;2023-07-20T04:59:11;3.83;;;2.53;;
21206;SDS011;10761;48.532;8.026;2023-07-20T05:01:36;4.63;;;2.60;;
21206;SDS011;10761;48.532;8.026;2023-07-20T05:04:02;3.97;;;2.63;;
21206;SDS011;10761;48.532;8.026;2023-07-20T05:06:28;3.55;;;2.30;;
21206;SDS011;10761;48.532;8.026;2023-07-20T05:08:53;5.55;;;2.47;;
21206;SDS011;10761;48.532;8.026;2023-07-20T05:11:19;5.85;;;2.33;;
21206;SDS011;10761;48.532;8.026;2023-07-20T05:13:45;6.75;;;2.47;;
21206;SDS011;10761;48.532;8.026;2023-07-20T05:16:10;6.15;;;2.83;;
21206;SDS011;10761;48.532;8.026;2023-07-20T05:18:36;3.30;;;2.30;;
21206;SDS011;10761;48.532;8.026;2023-07-20T05:21:02;6.75;;;2.50;;
21206;SDS011;10761;48.532;8.026;2023-07-20T05:23:28;7.35;;;2.35;;
21206;SDS011;10761;48.532;8.026;2023-07-20T05:25:54;4.90;;;2.15;;
21206;SDS011;10761;48.532;8.026;2023-07-20T05:28:21;4.55;;;2.55;;
21206;SDS011;10761;48.532;8.026;2023-07-20T05:30:47;5.13;;;2.25;;
21206;SDS011;10761;48.532;8.026;2023-07-20T05:33:12;7.05;;;2.50;;
21206;SDS011;10761;48.532;8.026;2023-07-20T05:35:38;4.75;;;2.28;;
21206;SDS011;10761;48.532;8.026;2023-07-20T05:38:04;6.53;;;2.53;;
21206;SDS011;10761;48.532;8.026;2023-07-20T05:40:31;7.05;;;2.35;;
21206;SDS011;10761;48.532;8.026;2023-07-20T05:42:57;4.70;;;2.40;;
21206;SDS011;10761;48.532;8.026;2023-07-20T05:45:23;6.07;;;2.38;;
21206;SDS011;10761;48.532;8.026;2023-07-20T05:47:49;6.40;;;2.35;;
21206;SDS011;10761;48.532;8.026;2023-07-20T05:50:15;3.47;;;2.33;;
21206;SDS011;10761;48.532;8.026;2023-07-20T05:52:40;5.40;;;2.47;;
21206;SDS011;10761;48.532;8.026;2023-07-20T05:55:06;3.45;;;2.05;;
21206;SDS011;10761;48.532;8.026;2023-07-20T05:57:32;6.60;;;2.40;;
21206;SDS011;10761;48.532;8.026;2023-07-20T05:59:58;6.15;;;2.50;;
21206;SDS011;10761;48.532;8.026;2023-07-20T06:02:24;7.35;;;2.83;;
21206;SDS011;10761;48.532;8.026;2023-07-20T06:04:49;4.75;;;2.65;;
21206;SDS011;10761;48.532;8.026;2023-07-20T06:07:18;5.30;;;2.70;;
21206;SDS011;10761;48.532;8.026;2023-07-20T06:09:44;5.35;;;2.42;;
21206;SDS011;10761;48.532;8.026;2023-07-20T06:12:09;13.70;;;2.65;;
21206;SDS011;10761;48.532;8.026;2023-07-20T06:14:35;6.68;;;2.35;;
21206;SDS011;10761;48.532;8.026;2023-07-20T06:17:00;6.97;;;2.45;;
21206;SDS011;10761;48.532;8.026;2023-07-20T06:19:26;4.03;;;2.60;;
21206;SDS011;10761;48.532;8.026;2023-07-20T06:21:52;7.82;;;2.80;;
21206;SDS011;10761;48.532;8.026;2023-07-20T06:24:17;8.00;;;2.67;;
21206;SDS011;10761;48.532;8.026;2023-07-20T06:26:43;5.63;;;2.47;;
21206;SDS011;10761;48.532;8.026;2023-07-20T06:29:09;3.92;;;2.88;;
21206;SDS011;10761;48.532;8.026;2023-07-20T06:31:35;7.05;;;2.60;;
21206;SDS011;10761;48.532;8.026;2023-07-20T06:34:01;4.70;;;2.65;;
21206;SDS011;10761;48.532;8.026;2023-07-20T06:36:27;8.00;;;2.58;;
21206;SDS011;10761;48.532;8.026;2023-07-20T06:38:53;6.82;;;2.63;;
21206;SDS011;10761;48.532;8.026;2023-07-20T06:41:19;7.70;;;2.85;;
21206;SDS011;10761;48.532;8.026;2023-07-20T06:43:45;5.15;;;2.45;;
21206;SDS011;10761;48.532;8.026;2023-07-20T06:46:11;4.85;;;2.75;;
21206;SDS011;10761;48.532;8.026;2023-07-20T06:48:36;7.93;;;2.70;;
21206;SDS011;10761;48.532;8.026;2023-07-20T06:51:02;4.75;;;2.50;;
21206;SDS011;10761;48.532;8.026;2023-07-20T06:53:28;4.50;;;2.33;;
21206;SDS011;10761;48.532;8.026;2023-07-20T06:55:54;8.30;;;2.83;;
21206;SDS011;10761;48.532;8.026;2023-07-20T06:58:22;7.85;;;2.85;;
21206;SDS011;10761;48.532;8.026;2023-07-20T07:00:50;6.95;;;3.03;;
21206;SDS011;10761;48.532;8.026;2023-07-20T07:03:16;9.90;;;2.72;;
21206;SDS011;10761;48.532;8.026;2023-07-20T07:05:42;11.15;;;2.83;;
21206;SDS011;10761;48.532;8.026;2023-07-20T07:08:09;6.25;;;2.72;;
21206;SDS011;10761;48.532;8.026;2023-07-20T07:10:35;7.00;;;2.55;;
21206;SDS011;10761;48.532;8.026;2023-07-20T07:13:01;6.45;;;2.80;;
21206;SDS011;10761;48.532;8.026;2023-07-20T07:15:27;9.75;;;3.40;;
21206;SDS011;10761;48.532;8.026;2023-07-20T07:17:53;8.65;;;3.05;;
21206;SDS011;10761;48.532;8.026;2023-07-20T07:20:19;5.10;;;2.85;;
21206;SDS011;10761;48.532;8.026;2023-07-20T07:22:44;7.22;;;3.00;;
21206;SDS011;10761;48.532;8.026;2023-07-20T07:25:11;6.55;;;3.03;;
21206;SDS011;10761;48.532;8.026;2023-07-20T07:27:37;6.60;;;2.92;;
21206;SDS011;10761;48.532;8.026;2023-07-20T07:30:03;8.63;;;2.72;;
21206;SDS011;10761;48.532;8.026;2023-07-20T07:32:30;6.85;;;2.60;;
21206;SDS011;10761;48.532;8.026;2023-07-20T07:34:56;8.40;;;2.75;;
21206;SDS011;10761;48.532;8.026;2023-07-20T07:37:23;11.88;;;2.80;;
21206;SDS011;10761;48.532;8.026;2023-07-20T07:39:49;5.82;;;2.50;;
21206;SDS011;10761;48.532;8.026;2023-07-20T07:42:14;6.35;;;2.45;;
21206;SDS011;10761;48.532;8.026;2023-07-20T07:44:40;4.85;;;2.28;;
21206;SDS011;10761;48.532;8.026;2023-07-20T07:47:06;4.03;;;2.30;;
21206;SDS011;10761;48.532;8.026;2023-07-20T07:49:31;3.60;;;2.28;;
21206;SDS011;10761;48.532;8.026;2023-07-20T07:51:57;3.83;;;1.98;;
21206;SDS011;10761;48.532;8.026;2023-07-20T07:54:23;7.30;;;2.40;;
21206;SDS011;10761;48.532;8.026;2023-07-20T07:56:48;4.80;;;2.03;;
21206;SDS011;10761;48.532;8.026;2023-07-20T07:59:14;5.53;;;1.95;;
21206;SDS011;10761;48.532;8.026;2023-07-20T08:01:39;6.22;;;2.75;;
21206;SDS011;10761;48.532;8.026;2023-07-20T08:04:05;7.45;;;2.45;;
21206;SDS011;10761;48.532;8.026;2023-07-20T08:06:31;4.35;;;2.40;;
21206;SDS011;10761;48.532;8.026;2023-07-20T08:08:56;6.82;;;2.47;;
21206;SDS011;10761;48.532;8.026;2023-07-20T08:11:23;6.38;;;2.28;;
21206;SDS011;10761;48.532;8.026;2023-07-20T08:13:49;7.50;;;2.47;;
21206;SDS011;10761;48.532;8.026;2023-07-20T08:16:14;4.93;;;2.30;;
21206;SDS011;10761;48.532;8.026;2023-07-20T08:18:40;6.60;;;2.20;;
21206;SDS011;10761;48.532;8.026;2023-07-20T08:21:05;5.97;;;2.63;;
21206;SDS011;10761;48.532;8.026;2023-07-20T08:23:31;7.20;;;2.70;;
21206;SDS011;10761;48.532;8.026;2023-07-20T08:25:57;5.78;;;2.72;;
21206;SDS011;10761;48.532;8.026;2023-07-20T08:28:22;6.47;;;2.47;;
21206;SDS011;10761;48.532;8.026;2023-07-20T08:30:48;7.85;;;2.67;;
21206;SDS011;10761;48.532;8.026;2023-07-20T08:33:15;7.63;;;2.60;;
21206;SDS011;10761;48.532;8.026;2023-07-20T08:35:44;7.30;;;2.85;;
21206;SDS011;10761;48.532;8.026;2023-07-20T08:38:09;5.53;;;2.60;;
21206;SDS011;10761;48.532;8.026;2023-07-20T08:40:41;5.70;;;2.40;;
21206;SDS011;10761;48.532;8.026;2023-07-20T08:43:10;8.43;;;2.70;;
21206;SDS011;10761;48.532;8.026;2023-07-20T08:45:36;7.50;;;2.85;;
21206;SDS011;10761;48.532;8.026;2023-07-20T08:48:05;6.10;;;2.85;;
21206;SDS011;10761;48.532;8.026;2023-07-20T08:50:32;9.60;;;2.70;;
21206;SDS011;10761;48.532;8.026;2023-07-20T08:52:59;7.25;;;2.83;;
21206;SDS011;10761;48.532;8.026;2023-07-20T08:55:25;6.63;;;2.25;;
21206;SDS011;10761;48.532;8.026;2023-07-20T08:57:55;4.13;;;2.40;;
21206;SDS011;10761;48.532;8.026;2023-07-20T09:00:22;5.07;;;2.10;;
21206;SDS011;10761;48.532;8.026;2023-07-20T09:02:49;6.38;;;2.13;;
21206;SDS011;10761;48.532;8.026;2023-07-20T09:05:16;9.57;;;2.55;;
21206;SDS011;10761;48.532;8.026;2023-07-20T09:07:42;6.43;;;2.10;;
21206;SDS011;10761;48.532;8.026;2023-07-20T09:10:08;7.28;;;2.30;;
21206;SDS011;10761;48.532;8.026;2023-07-20T09:12:36;10.80;;;2.72;;
21206;SDS011;10761;48.532;8.026;2023-07-20T09:15:03;5.38;;;2.45;;
21206;SDS011;10761;48.532;8.026;2023-07-20T09:17:29;6.45;;;2.55;;
21206;SDS011;10761;48.532;8.026;2023-07-20T09:19:55;10.98;;;2.10;;
21206;SDS011;10761;48.532;8.026;2023-07-20T09:22:21;5.22;;;2.28;;
21206;SDS011;10761;48.532;8.026;2023-07-20T09:24:46;5.80;;;2.10;;
21206;SDS011;10761;48.532;8.026;2023-07-20T09:27:12;4.38;;;2.05;;
21206;SDS011;10761;48.532;8.026;2023-07-20T09:29:47;6.15;;;2.40;;
21206;SDS011;10761;48.532;8.026;2023-07-20T09:32:14;3.72;;;1.90;;
21206;SDS011;10761;48.532;8.026;2023-07-20T09:34:44;3.70;;;1.83;;
21206;SDS011;10761;48.532;8.026;2023-07-20T09:37:10;8.00;;;1.90;;
21206;SDS011;10761;48.532;8.026;2023-07-20T09:39:42;1.77;;;1.30;;
21206;SDS011;10761;48.532;8.026;2023-07-20T09:42:11;5.10;;;1.65;;
21206;SDS011;10761;48.532;8.026;2023-07-20T09:44:42;4.25;;;1.83;;
21206;SDS011;10761;48.532;8.026;2023-07-20T09:47:08;4.05;;;1.80;;
21206;SDS011;10761;48.532;8.026;2023-07-20T09:49:41;6.10;;;1.80;;
21206;SDS011;10761;48.532;8.026;2023-07-20T09:52:09;3.03;;;1.58;;
21206;SDS011;10761;48.532;8.026;2023-07-20T09:54:39;7.47;;;1.80;;
21206;SDS011;10761;48.532;8.026;2023-07-20T09:57:08;4.07;;;1.60;;
21206;SDS011;10761;48.532;8.026;2023-07-20T09:59:37;3.17;;;1.83;;
21206;SDS011;10761;48.532;8.026;2023-07-20T10:02:04;3.88;;;1.63;;
21206;SDS011;10761;48.532;8.026;2023-07-20T10:04:36;2.95;;;1.70;;
21206;SDS011;10761;48.532;8.026;2023-07-20T10:07:03;3.65;;;1.92;;
21206;SDS011;10761;48.532;8.026;2023-07-20T10:09:35;6.07;;;1.55;;
21206;SDS011;10761;48.532;8.026;2023-07-20T10:12:05;4.10;;;1.80;;
21206;SDS011;10761;48.532;8.026;2023-07-20T10:14:33;3.15;;;1.42;;
21206;SDS011;10761;48.532;8.026;2023-07-20T10:17:03;2.85;;;1.70;;
21206;SDS011;10761;48.532;8.026;2023-07-20T10:22:10;4.57;;;1.50;;
21206;SDS011;10761;48.532;8.026;2023-07-20T10:24:39;6.97;;;1.70;;
21206;SDS011;10761;48.532;8.026;2023-07-20T10:27:06;4.47;;;1.90;;
21206;SDS011;10761;48.532;8.026;2023-07-20T10:29:32;3.35;;;1.83;;
21206;SDS011;10761;48.532;8.026;2023-07-20T10:32:00;3.28;;;1.50;;
21206;SDS011;10761;48.532;8.026;2023-07-20T10:34:26;4.55;;;1.50;;
21206;SDS011;10761;48.532;8.026;2023-07-20T10:36:53;2.13;;;1.42;;
21206;SDS011;10761;48.532;8.026;2023-07-20T10:39:23;3.35;;;1.67;;
21206;SDS011;10761;48.532;8.026;2023-07-20T10:41:49;6.88;;;1.85;;
21206;SDS011;10761;48.532;8.026;2023-07-20T10:44:18;2.88;;;1.50;;
21206;SDS011;10761;48.532;8.026;2023-07-20T10:46:45;3.58;;;1.90;;
21206;SDS011;10761;48.532;8.026;2023-07-20T10:49:12;3.75;;;1.90;;
21206;SDS011;10761;48.532;8.026;2023-07-20T10:51:40;5.38;;;1.90;;
21206;SDS011;10761;48.532;8.026;2023-07-20T10:56:42;4.28;;;2.03;;
21206;SDS011;10761;48.532;8.026;2023-07-20T10:59:19;6.03;;;1.90;;
21206;SDS011;10761;48.532;8.026;2023-07-20T11:02:02;3.45;;;1.70;;
21206;SDS011;10761;48.532;8.026;2023-07-20T11:04:41;3.75;;;1.77;;
21206;SDS011;10761;48.532;8.026;2023-07-20T11:07:08;3.30;;;1.70;;
21206;SDS011;10761;48.532;8.026;2023-07-20T11:09:34;4.63;;;1.52;;
21206;SDS011;10761;48.532;8.026;2023-07-20T11:14:43;4.38;;;1.70;;
21206;SDS011;10761;48.532;8.026;2023-07-20T11:17:19;7.90;;;1.80;;
21206;SDS011;10761;48.532;8.026;2023-07-20T11:19:48;4.05;;;1.80;;
21206;SDS011;10761;48.532;8.026;2023-07-20T11:22:16;2.67;;;2.00;;
21206;SDS011;10761;48.532;8.026;2023-07-20T11:24:42;7.15;;;1.75;;
21206;SDS011;10761;48.532;8.026;2023-07-20T11:27:08;7.53;;;1.75;;
21206;SDS011;10761;48.532;8.026;2023-07-20T11:29:34;6.57;;;1.85;;
21206;SDS011;10761;48.532;8.026;2023-07-20T11:32:02;2.10;;;1.48;;
21206;SDS011;10761;48.532;8.026;2023-07-20T11:34:29;3.97;;;1.38;;
21206;SDS011;10761;48.532;8.026;2023-07-20T11:36:56;2.80;;;1.70;;
21206;SDS011;10761;48.532;8.026;2023-07-20T11:39:22;3.20;;;1.63;;
21206;SDS011;10761;48.532;8.026;2023-07-20T11:41:51;4.50;;;1.77;;
21206;SDS011;10761;48.532;8.026;2023-07-20T11:44:18;6.70;;;2.08;;
21206;SDS011;10761;48.532;8.026;2023-07-20T11:46:51;2.42;;;1.77;;
21206;SDS011;10761;48.532;8.026;2023-07-20T11:49:38;6.95;;;1.58;;
21206;SDS011;10761;48.532;8.026;2023-07-20T11:52:08;3.90;;;1.67;;
21206;SDS011;10761;48.532;8.026;2023-07-20T11:54:35;5.30;;;1.65;;
21206;SDS011;10761;48.532;8.026;2023-07-20T11:57:04;2.83;;;1.50;;
21206;SDS011;10761;48.532;8.026;2023-07-20T11:59:32;3.42;;;1.55;;
21206;SDS011;10761;48.532;8.026;2023-07-20T12:02:00;2.95;;;1.50;;
21206;SDS011;10761;48.532;8.026;2023-07-20T12:04:28;3.72;;;1.75;;
21206;SDS011;10761;48.532;8.026;2023-07-20T12:06:54;3.47;;;1.80;;
21206;SDS011;10761;48.532;8.026;2023-07-20T12:09:20;3.90;;;1.65;;
21206;SDS011;10761;48.532;8.026;2023-07-20T12:11:48;3.83;;;1.45;;
21206;SDS011;10761;48.532;8.026;2023-07-20T12:14:14;1.98;;;1.52;;
21206;SDS011;10761;48.532;8.026;2023-07-20T12:16:40;4.07;;;1.55;;
21206;SDS011;10761;48.532;8.026;2023-07-20T12:19:07;3.03;;;1.30;;
21206;SDS011;10761;48.532;8.026;2023-07-20T12:21:37;3.53;;;1.65;;
21206;SDS011;10761;48.532;8.026;2023-07-20T12:24:05;4.53;;;1.83;;
21206;SDS011;10761;48.532;8.026;2023-07-20T12:26:32;2.75;;;1.48;;
21206;SDS011;10761;48.532;8.026;2023-07-20T12:28:58;4.05;;;1.42;;
21206;SDS011;10761;48.532;8.026;2023-07-20T12:31:25;1.50;;;1.25;;
21206;SDS011;10761;48.532;8.026;2023-07-20T12:33:52;1.80;;;1.20;;
21206;SDS011;10761;48.532;8.026;2023-07-20T12:36:20;2.22;;;1.40;;
21206;SDS011;10761;48.532;8.026;2023-07-20T12:38:46;5.90;;;1.55;;
21206;SDS011;10761;48.532;8.026;2023-07-20T12:41:12;3.72;;;1.30;;
21206;SDS011;10761;48.532;8.026;2023-07-20T12:43:38;2.40;;;1.30;;
21206;SDS011;10761;48.532;8.026;2023-07-20T12:46:05;4.32;;;1.25;;
21206;SDS011;10761;48.532;8.026;2023-07-20T12:48:31;3.65;;;1.58;;
21206;SDS011;10761;48.532;8.026;2023-07-20T12:50:56;2.60;;;1.40;;
21206;SDS011;10761;48.532;8.026;2023-07-20T12:53:22;3.13;;;1.50;;
21206;SDS011;10761;48.532;8.026;2023-07-20T12:55:47;1.98;;;1.42;;
21206;SDS011;10761;48.532;8.026;2023-07-20T12:58:13;2.55;;;1.85;;
21206;SDS011;10761;48.532;8.026;2023-07-20T13:00:39;2.83;;;1.50;;
21206;SDS011;10761;48.532;8.026;2023-07-20T13:03:06;1.67;;;1.20;;
21206;SDS011;10761;48.532;8.026;2023-07-20T13:05:33;3.97;;;1.50;;
21206;SDS011;10761;48.532;8.026;2023-07-20T13:08:00;2.08;;;1.30;;
21206;SDS011;10761;48.532;8.026;2023-07-20T13:10:26;2.53;;;1.30;;
21206;SDS011;10761;48.532;8.026;2023-07-20T13:12:52;3.70;;;1.60;;
21206;SDS011;10761;48.532;8.026;2023-07-20T13:15:18;7.38;;;1.58;;
21206;SDS011;10761;48.532;8.026;2023-07-20T13:17:43;3.33;;;1.33;;
21206;SDS011;10761;48.532;8.026;2023-07-20T13:20:10;5.53;;;1.85;;
21206;SDS011;10761;48.532;8.026;2023-07-20T13:22:39;4.45;;;1.10;;
21206;SDS011;10761;48.532;8.026;2023-07-20T13:25:05;4.47;;;1.40;;
21206;SDS011;10761;48.532;8.026;2023-07-20T13:27:32;2.20;;;1.20;;
21206;SDS011;10761;48.532;8.026;2023-07-20T13:29:58;5.47;;;1.60;;
21206;SDS011;10761;48.532;8.026;2023-07-20T13:32:25;1.92;;;1.30;;
21206;SDS011;10761;48.532;8.026;2023-07-20T13:34:51;2.03;;;1.40;;
21206;SDS011;10761;48.532;8.026;2023-07-20T13:37:17;1.42;;;1.30;;
21206;SDS011;10761;48.532;8.026;2023-07-20T13:39:43;1.65;;;1.40;;
21206;SDS011;10761;48.532;8.026;2023-07-20T13:42:08;5.13;;;1.65;;
21206;SDS011;10761;48.532;8.026;2023-07-20T13:44:36;1.20;;;1.10;;
21206;SDS011;10761;48.532;8.026;2023-07-20T13:47:02;1.80;;;1.48;;
21206;SDS011;10761;48.532;8.026;2023-07-20T13:49:30;1.85;;;1.27;;
21206;SDS011;10761;48.532;8.026;2023-07-20T13:51:57;3.22;;;1.42;;
21206;SDS011;10761;48.532;8.026;2023-07-20T13:54:23;2.33;;;1.40;;
21206;SDS011;10761;48.532;8.026;2023-07-20T13:56:49;1.42;;;1.30;;
21206;SDS011;10761;48.532;8.026;2023-07-20T13:59:17;1.25;;;1.15;;
21206;SDS011;10761;48.532;8.026;2023-07-20T14:01:43;1.88;;;1.30;;
21206;SDS011;10761;48.532;8.026;2023-07-20T14:04:08;2.45;;;1.30;;
21206;SDS011;10761;48.532;8.026;2023-07-20T14:06:34;2.65;;;1.10;;
21206;SDS011;10761;48.532;8.026;2023-07-20T14:09:00;2.10;;;1.20;;
21206;SDS011;10761;48.532;8.026;2023-07-20T14:11:27;2.80;;;1.20;;
21206;SDS011;10761;48.532;8.026;2023-07-20T14:13:53;1.40;;;1.30;;
21206;SDS011;10761;48.532;8.026;2023-07-20T14:16:19;4.07;;;1.20;;
21206;SDS011;10761;48.532;8.026;2023-07-20T14:18:45;5.80;;;1.30;;
21206;SDS011;10761;48.532;8.026;2023-07-20T14:21:14;3.65;;;1.50;;
21206;SDS011;10761;48.532;8.026;2023-07-20T14:23:40;1.60;;;1.48;;
21206;SDS011;10761;48.532;8.026;2023-07-20T14:26:05;6.03;;;1.58;;
21206;SDS011;10761;48.532;8.026;2023-07-20T14:28:32;2.83;;;1.45;;
21206;SDS011;10761;48.532;8.026;2023-07-20T14:30:58;2.55;;;1.13;;
21206;SDS011;10761;48.532;8.026;2023-07-20T14:33:23;1.55;;;1.20;;
21206;SDS011;10761;48.532;8.026;2023-07-20T14:35:49;5.00;;;1.60;;
21206;SDS011;10761;48.532;8.026;2023-07-20T14:38:15;1.83;;;1.20;;
21206;SDS011;10761;48.532;8.026;2023-07-20T14:40:40;3.10;;;1.33;;
21206;SDS011;10761;48.532;8.026;2023-07-20T14:43:06;2.78;;;1.10;;
21206;SDS011;10761;48.532;8.026;2023-07-20T14:45:32;4.03;;;1.20;;
21206;SDS011;10761;48.532;8.026;2023-07-20T14:47:57;2.00;;;1.20;;
21206;SDS011;10761;48.532;8.026;2023-07-20T14:50:24;1.65;;;1.40;;
21206;SDS011;10761;48.532;8.026;2023-07-20T14:52:49;1.55;;;1.42;;
21206;SDS011;10761;48.532;8.026;2023-07-20T14:55:15;1.88;;;1.40;;
21206;SDS011;10761;48.532;8.026;2023-07-20T14:57:40;1.88;;;1.40;;
21206;SDS011;10761;48.532;8.026;2023-07-20T15:00:06;6.35;;;1.85;;
21206;SDS011;10761;48.532;8.026;2023-07-20T15:02:38;3.42;;;1.42;;